Time;durP1;ratioP1;P1;durP2;ratioP2;P2;SDS_P1;SDS_P2;PMS_P1;PMS_P2;Temp;Humidity;BMP_temperature;BMP_pressure;BME280_temperature;BME280_humidity;BME280_pressure;Samples;Min_cycle;Max_cycle;Signal;HPM_P1;HPM_P2
2023/03/10 00:00:54;;;;;;;2.93;1.10;;;13.90;99.90;;;;;;5095012;28;20257;-65
2023/03/10 00:03:21;;;;;;;3.13;1.73;;;13.90;99.90;;;;;;5094541;28;20261;-65
2023/03/10 00:05:48;;;;;;;7.37;1.80;;;13.90;99.90;;;;;;5094350;28;20242;-65
2023/03/10 00:08:15;;;;;;;4.07;1.80;;;13.90;99.90;;;;;;5094362;28;20204;-64
2023/03/10 00:10:41;;;;;;;4.27;1.40;;;13.90;99.90;;;;;;5094378;28;20212;-64
2023/03/10 00:13:08;;;;;;;3.17;1.70;;;13.90;99.90;;;;;;5093897;28;20265;-65
2023/03/10 00:15:36;;;;;;;3.87;1.50;;;13.90;99.90;;;;;;5094072;28;20208;-65
2023/03/10 00:18:03;;;;;;;3.23;1.40;;;13.90;99.90;;;;;;5094008;28;20208;-65
2023/03/10 00:20:29;;;;;;;3.27;1.40;;;13.80;99.90;;;;;;5093993;28;20201;-64
2023/03/10 00:22:56;;;;;;;3.23;1.27;;;13.80;99.90;;;;;;5093706;28;20204;-64
2023/03/10 00:25:23;;;;;;;4.70;1.30;;;13.80;99.90;;;;;;5093870;28;20254;-64
2023/03/10 00:27:51;;;;;;;4.40;1.40;;;13.80;99.90;;;;;;5093537;28;20700;-64
2023/03/10 00:30:18;;;;;;;3.77;1.47;;;13.80;99.90;;;;;;5093817;28;20239;-64
2023/03/10 00:32:46;;;;;;;4.30;1.60;;;13.80;99.90;;;;;;5093513;28;20212;-64
2023/03/10 00:35:13;;;;;;;3.70;1.20;;;13.70;99.90;;;;;;5093546;28;20212;-65
2023/03/10 00:37:39;;;;;;;3.53;1.40;;;13.70;99.90;;;;;;5093232;28;20247;-64
2023/03/10 00:40:11;;;;;;;1.77;1.30;;;13.70;99.90;;;;;;5093643;28;20200;-64
2023/03/10 00:42:38;;;;;;;3.40;1.20;;;13.70;99.90;;;;;;5093321;28;20262;-64
2023/03/10 00:45:05;;;;;;;3.67;1.37;;;13.60;99.90;;;;;;5093456;28;20200;-64
2023/03/10 00:47:32;;;;;;;3.30;1.20;;;13.60;99.90;;;;;;5093346;28;20235;-64
2023/03/10 00:50:00;;;;;;;4.70;1.23;;;13.60;99.90;;;;;;5093267;28;20220;-64
2023/03/10 00:52:31;;;;;;;1.40;1.13;;;13.60;99.90;;;;;;5092950;28;20200;-65
2023/03/10 00:54:58;;;;;;;3.43;1.40;;;13.60;99.90;;;;;;5093475;28;20207;-64
2023/03/10 00:57:25;;;;;;;3.33;1.10;;;13.60;99.90;;;;;;5093308;28;20228;-63
2023/03/10 00:59:52;;;;;;;3.10;1.20;;;13.70;99.90;;;;;;5092346;28;20291;-64
2023/03/10 01:02:19;;;;;;;3.43;1.30;;;13.60;99.90;;;;;;5092669;28;20208;-64
2023/03/10 01:04:46;;;;;;;2.63;1.17;;;13.50;99.90;;;;;;5093258;28;20200;-64
2023/03/10 01:07:14;;;;;;;2.17;1.10;;;13.50;99.90;;;;;;5092865;28;20224;-63
2023/03/10 01:09:41;;;;;;;3.53;1.40;;;13.50;99.90;;;;;;5093126;28;20314;-63
2023/03/10 01:12:08;;;;;;;2.97;0.90;;;13.50;99.90;;;;;;5092900;28;20204;-64
2023/03/10 01:14:35;;;;;;;2.17;1.10;;;13.50;99.90;;;;;;5093397;28;20208;-63
2023/03/10 01:17:02;;;;;;;1.33;0.90;;;13.50;99.90;;;;;;5093133;28;20706;-64
2023/03/10 01:19:29;;;;;;;1.27;0.80;;;13.50;99.90;;;;;;5092895;28;20689;-64
2023/03/10 01:21:56;;;;;;;2.70;1.10;;;13.50;99.90;;;;;;5093211;28;20200;-65
2023/03/10 01:24:24;;;;;;;1.80;1.17;;;13.60;99.90;;;;;;5093079;28;20215;-64
2023/03/10 01:26:51;;;;;;;3.67;1.13;;;13.60;99.90;;;;;;5092704;28;20714;-65
2023/03/10 01:29:17;;;;;;;3.30;1.00;;;13.70;99.90;;;;;;5092861;28;20227;-64
2023/03/10 01:31:44;;;;;;;4.50;1.20;;;13.70;99.90;;;;;;5092590;28;20207;-64
2023/03/10 01:34:11;;;;;;;2.87;1.00;;;13.70;99.90;;;;;;5092844;28;20572;-64
2023/03/10 01:36:40;;;;;;;1.60;0.90;;;13.70;99.90;;;;;;5092363;28;20224;-64
2023/03/10 01:39:07;;;;;;;3.33;1.30;;;13.70;99.90;;;;;;5092407;28;20215;-64
2023/03/10 01:41:39;;;;;;;1.30;0.90;;;13.70;99.90;;;;;;5092615;28;20235;-63
2023/03/10 01:44:11;;;;;;;2.70;1.00;;;13.70;99.90;;;;;;5092345;28;20204;-64
2023/03/10 01:46:49;;;;;;;1.90;1.07;;;13.70;99.90;;;;;;5092405;28;20231;-64
2023/03/10 01:49:36;;;;;;;2.03;1.00;;;13.60;99.90;;;;;;5092205;28;20259;-64
2023/03/10 01:52:07;;;;;;;2.77;1.10;;;13.60;99.90;;;;;;5092101;28;20208;-64
2023/03/10 01:54:40;;;;;;;1.73;1.00;;;13.60;99.90;;;;;;5092218;28;20709;-63
2023/03/10 01:57:09;;;;;;;1.10;0.80;;;13.60;99.90;;;;;;5092094;28;20235;-64
2023/03/10 01:59:36;;;;;;;2.20;1.07;;;13.60;99.90;;;;;;5092127;28;20576;-64
2023/03/10 02:02:04;;;;;;;2.17;1.20;;;13.60;99.90;;;;;;5091991;28;20606;-64
2023/03/10 02:04:36;;;;;;;3.80;1.20;;;13.50;99.90;;;;;;5092024;28;20223;-64
2023/03/10 02:07:06;;;;;;;2.87;1.07;;;13.50;99.90;;;;;;5092186;28;20235;-64
2023/03/10 02:09:35;;;;;;;2.10;1.07;;;13.40;99.90;;;;;;5092059;28;20223;-63
2023/03/10 02:12:03;;;;;;;4.07;1.07;;;13.40;99.90;;;;;;5095401;28;20239;-65
2023/03/10 02:14:34;;;;;;;5.33;1.07;;;13.50;99.90;;;;;;5099124;28;20204;-64
2023/03/10 02:17:01;;;;;;;2.70;1.00;;;13.50;99.90;;;;;;5098863;28;20224;-66
2023/03/10 02:19:39;;;;;;;5.23;1.30;;;13.30;99.90;;;;;;5098730;28;20200;-66
2023/03/10 02:22:09;;;;;;;3.27;1.20;;;13.30;99.90;;;;;;5099147;28;20200;-66
2023/03/10 02:24:46;;;;;;;4.20;1.10;;;13.20;99.90;;;;;;5099316;28;20204;-66
2023/03/10 02:27:21;;;;;;;2.57;1.20;;;13.20;99.90;;;;;;5098844;28;20224;-65
2023/03/10 02:29:54;;;;;;;3.37;1.00;;;13.20;99.90;;;;;;5098662;28;20604;-66
2023/03/10 02:32:22;;;;;;;2.90;0.80;;;13.20;99.90;;;;;;5098314;28;20639;-66
2023/03/10 02:34:49;;;;;;;3.60;0.63;;;13.10;99.90;;;;;;5098829;28;20231;-66
2023/03/10 02:37:20;;;;;;;1.47;0.60;;;13.10;99.90;;;;;;5098361;28;20220;-66
2023/03/10 02:39:47;;;;;;;2.37;0.70;;;13.10;99.90;;;;;;5098688;28;20239;-65
2023/03/10 02:42:14;;;;;;;2.80;1.17;;;13.00;99.90;;;;;;5098181;28;20238;-65
2023/03/10 02:44:43;;;;;;;1.83;0.70;;;13.00;99.90;;;;;;5098733;28;20257;-65
2023/03/10 02:47:10;;;;;;;1.97;0.80;;;13.00;99.90;;;;;;5098478;28;20227;-66
2023/03/10 02:49:37;;;;;;;3.80;1.13;;;13.00;99.90;;;;;;5098520;28;20224;-66
2023/03/10 02:52:08;;;;;;;1.80;0.50;;;13.00;99.90;;;;;;5098316;28;20200;-66
2023/03/10 02:54:35;;;;;;;3.20;0.70;;;13.00;99.90;;;;;;5098552;28;20204;-65
2023/03/10 02:57:02;;;;;;;1.73;0.80;;;12.90;99.90;;;;;;5133229;22;20284;-59
2023/03/10 02:59:29;;;;;;;2.63;0.60;;;12.90;99.90;;;;;;5120226;28;20200;-60
2023/03/10 03:01:57;;;;;;;1.20;0.60;;;12.80;99.90;;;;;;5119495;28;20203;-60
2023/03/10 03:04:24;;;;;;;1.57;0.57;;;12.80;99.90;;;;;;5119662;28;20210;-59
2023/03/10 03:06:50;;;;;;;1.67;0.77;;;12.80;99.90;;;;;;5110966;28;20227;-60
2023/03/10 03:09:17;;;;;;;2.37;0.60;;;12.80;99.90;;;;;;5099755;28;20298;-60
2023/03/10 03:11:44;;;;;;;1.20;0.50;;;12.80;99.90;;;;;;5099639;28;20212;-60
2023/03/10 03:14:11;;;;;;;1.90;0.53;;;12.70;99.90;;;;;;5099618;28;20582;-60
2023/03/10 03:16:38;;;;;;;1.03;0.70;;;12.70;99.90;;;;;;5099266;28;20322;-59
2023/03/10 03:19:07;;;;;;;2.47;0.70;;;12.70;99.90;;;;;;5099207;28;20688;-60
2023/03/10 03:21:34;;;;;;;2.20;0.83;;;12.60;99.90;;;;;;5099527;28;20249;-60
2023/03/10 03:24:01;;;;;;;1.40;0.53;;;12.60;99.90;;;;;;5095669;28;20236;-60
2023/03/10 03:26:28;;;;;;;1.23;0.60;;;12.50;99.90;;;;;;5095910;28;20718;-60
2023/03/10 03:28:55;;;;;;;1.10;0.60;;;12.60;99.90;;;;;;5096266;28;20294;-60
2023/03/10 03:31:24;;;;;;;2.77;0.77;;;12.60;99.90;;;;;;5096087;28;20232;-60
2023/03/10 03:33:51;;;;;;;2.10;0.80;;;12.50;99.90;;;;;;5095830;28;20204;-60
2023/03/10 03:36:19;;;;;;;1.40;0.60;;;12.50;99.90;;;;;;5095776;28;20281;-59
2023/03/10 03:38:46;;;;;;;1.67;0.40;;;12.60;99.90;;;;;;5095951;28;20675;-59
2023/03/10 03:41:13;;;;;;;1.70;0.50;;;12.50;99.90;;;;;;5095558;28;20204;-59
2023/03/10 03:43:40;;;;;;;0.90;0.30;;;12.40;99.90;;;;;;5095686;28;20291;-59
2023/03/10 03:46:07;;;;;;;2.23;0.53;;;12.40;99.90;;;;;;5095675;28;20224;-58
2023/03/10 03:48:34;;;;;;;1.97;0.63;;;12.30;99.90;;;;;;5095879;28;20207;-59
2023/03/10 03:51:02;;;;;;;1.13;0.50;;;12.20;99.90;;;;;;5095839;28;20699;-59
2023/03/10 03:53:31;;;;;;;0.90;0.30;;;12.20;99.90;;;;;;5095396;28;20215;-59
2023/03/10 03:55:57;;;;;;;2.73;0.60;;;12.20;99.90;;;;;;5095528;28;20207;-58
2023/03/10 03:58:24;;;;;;;1.70;0.40;;;12.10;99.90;;;;;;5095472;28;20212;-59
2023/03/10 04:00:52;;;;;;;1.20;0.47;;;12.10;99.90;;;;;;5095619;28;20200;-58
2023/03/10 04:03:19;;;;;;;2.03;1.40;;;12.10;99.90;;;;;;5095632;28;20220;-59
2023/03/10 04:05:46;;;;;;;2.10;0.77;;;12.00;99.90;;;;;;5095225;28;20238;-58
2023/03/10 04:08:14;;;;;;;1.40;0.50;;;12.10;99.90;;;;;;5095423;28;20212;-58
2023/03/10 04:10:42;;;;;;;0.87;0.53;;;12.10;99.90;;;;;;5095283;28;20726;-58
2023/03/10 04:13:09;;;;;;;1.43;0.97;;;12.00;99.90;;;;;;5095309;28;20292;-59
2023/03/10 04:15:36;;;;;;;0.43;0.40;;;12.00;99.90;;;;;;5095354;28;20204;-58
2023/03/10 04:18:02;;;;;;;0.40;0.20;;;11.90;99.90;;;;;;5095244;28;20220;-60
2023/03/10 04:20:29;;;;;;;0.80;0.30;;;12.00;99.90;;;;;;5095456;28;20200;-59
2023/03/10 04:22:56;;;;;;;1.07;0.30;;;12.00;99.90;;;;;;5094929;28;20212;-58
2023/03/10 04:25:23;;;;;;;2.00;0.40;;;12.00;99.90;;;;;;5094776;28;20204;-59
2023/03/10 04:27:51;;;;;;;1.10;0.33;;;12.10;99.90;;;;;;5095152;28;20236;-58
2023/03/10 04:30:19;;;;;;;2.53;0.50;;;12.10;99.90;;;;;;5094968;28;20231;-58
2023/03/10 04:32:46;;;;;;;1.10;0.30;;;12.20;99.90;;;;;;5095059;28;20204;-58
2023/03/10 04:35:14;;;;;;;0.43;0.37;;;12.10;99.90;;;;;;5094776;28;20272;-59
2023/03/10 04:37:43;;;;;;;13.27;9.97;;;12.10;99.90;;;;;;5094847;28;20220;-58
2023/03/10 04:40:13;;;;;;;1.50;1.10;;;12.10;99.90;;;;;;5094552;28;20567;-57
2023/03/10 04:42:41;;;;;;;2.10;1.00;;;12.00;99.90;;;;;;5094402;28;20711;-57
2023/03/10 04:45:11;;;;;;;2.77;0.80;;;12.00;99.90;;;;;;5094601;28;20589;-58
2023/03/10 04:47:38;;;;;;;0.67;0.43;;;12.00;99.90;;;;;;5094624;28;20268;-58
2023/03/10 04:50:06;;;;;;;1.43;0.77;;;12.10;99.90;;;;;;5094725;28;20244;-58
2023/03/10 04:52:33;;;;;;;0.93;0.30;;;12.00;99.90;;;;;;5095116;28;20577;-58
2023/03/10 04:54:59;;;;;;;0.63;0.30;;;11.90;99.90;;;;;;5095187;28;20291;-58
2023/03/10 04:57:26;;;;;;;3.20;1.60;;;12.00;99.90;;;;;;5094710;28;20236;-58
2023/03/10 04:59:53;;;;;;;3.13;1.03;;;12.00;99.90;;;;;;5094931;28;20201;-58
2023/03/10 05:02:21;;;;;;;2.40;1.40;;;12.00;99.90;;;;;;5094088;28;20204;-58
2023/03/10 05:04:48;;;;;;;2.23;1.00;;;12.00;99.90;;;;;;5094579;28;20723;-58
2023/03/10 05:07:15;;;;;;;1.47;1.00;;;12.10;99.90;;;;;;5094561;28;20231;-58
2023/03/10 05:09:42;;;;;;;1.67;0.40;;;12.10;99.90;;;;;;5094089;28;20204;-58
2023/03/10 05:12:10;;;;;;;1.27;0.70;;;12.20;99.90;;;;;;5093816;28;20634;-59
2023/03/10 05:14:37;;;;;;;3.27;0.83;;;12.30;99.90;;;;;;5094359;28;20295;-57
2023/03/10 05:17:05;;;;;;;1.60;0.50;;;12.30;99.90;;;;;;5094670;28;20228;-59
2023/03/10 05:19:35;;;;;;;0.70;0.47;;;12.40;99.90;;;;;;5095430;28;20196;-59
2023/03/10 05:22:02;;;;;;;1.00;0.67;;;12.30;99.90;;;;;;5095361;28;20309;-59
2023/03/10 05:24:29;;;;;;;0.57;0.53;;;12.20;99.90;;;;;;5095344;28;20804;-59
2023/03/10 05:26:56;;;;;;;2.00;0.60;;;12.10;99.90;;;;;;5096338;28;20228;-59
2023/03/10 05:29:23;;;;;;;1.87;0.80;;;12.00;99.90;;;;;;5096372;28;20204;-59
2023/03/10 05:31:50;;;;;;;2.27;1.57;;;11.90;99.90;;;;;;5096853;28;20319;-58
2023/03/10 05:34:17;;;;;;;2.80;0.83;;;11.70;99.90;;;;;;5097516;28;20303;-59
2023/03/10 05:36:45;;;;;;;1.63;0.80;;;11.60;99.90;;;;;;5096776;28;20224;-59
2023/03/10 05:39:12;;;;;;;2.73;0.90;;;11.50;99.90;;;;;;5097863;28;20208;-59
2023/03/10 05:41:39;;;;;;;1.57;0.77;;;11.50;99.90;;;;;;5098606;28;20241;-58
2023/03/10 05:44:06;;;;;;;3.50;1.10;;;11.50;99.90;;;;;;5096692;28;20210;-61
2023/03/10 05:46:33;;;;;;;1.97;0.50;;;11.60;99.90;;;;;;5096829;28;20314;-59
2023/03/10 05:49:00;;;;;;;3.40;0.80;;;11.60;99.90;;;;;;5097695;28;20215;-58
2023/03/10 05:51:27;;;;;;;2.87;0.70;;;11.70;99.90;;;;;;5096747;28;20228;-59
2023/03/10 05:53:55;;;;;;;2.13;0.60;;;11.80;99.90;;;;;;5096124;28;20691;-58
2023/03/10 05:56:22;;;;;;;3.00;0.97;;;11.70;99.90;;;;;;5096005;28;20738;-59
2023/03/10 05:58:50;;;;;;;1.87;1.00;;;11.70;99.90;;;;;;5095783;28;20208;-59
2023/03/10 06:01:18;;;;;;;1.87;1.10;;;11.60;99.90;;;;;;5095302;28;20230;-59
2023/03/10 06:03:45;;;;;;;2.20;1.10;;;11.60;99.90;;;;;;5095709;28;20235;-59
2023/03/10 06:06:12;;;;;;;1.10;0.70;;;11.70;99.90;;;;;;5095142;28;20673;-59
2023/03/10 06:08:40;;;;;;;2.50;0.80;;;11.80;99.90;;;;;;5095453;28;20255;-59
2023/03/10 06:11:09;;;;;;;1.00;0.60;;;11.90;99.90;;;;;;5094954;28;20220;-59
2023/03/10 06:13:36;;;;;;;2.83;0.77;;;12.10;99.90;;;;;;5094560;28;20287;-60
2023/03/10 06:16:05;;;;;;;2.13;0.70;;;12.20;99.90;;;;;;5094139;28;20215;-59
2023/03/10 06:18:33;;;;;;;2.07;0.73;;;12.20;99.90;;;;;;5094233;28;20215;-59
2023/03/10 06:21:03;;;;;;;1.00;0.60;;;12.40;99.90;;;;;;5093818;28;20226;-59
2023/03/10 06:23:30;;;;;;;3.10;1.20;;;12.50;99.90;;;;;;5093485;28;20298;-59
2023/03/10 06:25:58;;;;;;;4.07;0.60;;;12.60;99.90;;;;;;5093343;28;20208;-59
2023/03/10 06:28:31;;;;;;;1.40;0.70;;;12.60;99.90;;;;;;5093382;28;20208;-59
2023/03/10 06:30:59;;;;;;;1.23;0.60;;;12.70;99.90;;;;;;5093811;28;20220;-59
2023/03/10 06:33:26;;;;;;;1.67;0.57;;;12.70;99.90;;;;;;5094052;28;20630;-59
2023/03/10 06:35:53;;;;;;;3.97;0.40;;;12.80;99.90;;;;;;5093286;28;20204;-59
2023/03/10 06:38:20;;;;;;;1.60;0.60;;;12.90;99.90;;;;;;5092699;28;20283;-59
2023/03/10 06:40:47;;;;;;;0.47;0.30;;;13.00;99.90;;;;;;5093044;28;20204;-59
2023/03/10 06:43:14;;;;;;;3.20;0.70;;;13.00;99.90;;;;;;5092820;28;20265;-60
2023/03/10 06:45:43;;;;;;;0.73;0.30;;;12.90;99.90;;;;;;5092666;28;20656;-59
2023/03/10 06:48:10;;;;;;;0.97;0.37;;;12.90;99.90;;;;;;5092120;28;20431;-59
2023/03/10 06:50:41;;;;;;;0.90;0.50;;;12.80;99.90;;;;;;5092328;28;20204;-58
2023/03/10 06:53:08;;;;;;;1.50;0.50;;;12.70;99.90;;;;;;5092537;28;20287;-59
2023/03/10 06:55:35;;;;;;;0.77;0.40;;;12.60;99.90;;;;;;5092584;28;20215;-60
2023/03/10 06:58:02;;;;;;;1.33;0.50;;;12.50;99.90;;;;;;5091789;28;20228;-59
2023/03/10 07:00:29;;;;;;;0.63;0.30;;;12.50;99.90;;;;;;5096209;28;20291;-60
2023/03/10 07:02:57;;;;;;;0.50;0.30;;;12.50;99.90;;;;;;5096145;28;20204;-58
2023/03/10 07:05:26;;;;;;;0.60;0.33;;;12.50;99.90;;;;;;5096065;28;20551;-59
2023/03/10 07:07:53;;;;;;;1.70;0.40;;;12.50;99.90;;;;;;5095580;28;20255;-59
2023/03/10 07:10:20;;;;;;;0.80;0.30;;;12.30;99.90;;;;;;5096028;28;20207;-59
2023/03/10 07:12:53;;;;;;;1.10;0.43;;;12.10;99.90;;;;;;5095710;28;20224;-59
2023/03/10 07:15:20;;;;;;;1.53;0.67;;;12.10;99.90;;;;;;5095818;28;20724;-59
2023/03/10 07:17:47;;;;;;;0.40;0.37;;;12.30;99.90;;;;;;5095491;28;20315;-59
2023/03/10 07:20:16;;;;;;;1.07;0.63;;;12.40;99.90;;;;;;5095582;28;20196;-58
2023/03/10 07:22:43;;;;;;;0.90;0.40;;;12.50;99.90;;;;;;5095414;28;20201;-59
2023/03/10 07:25:10;;;;;;;1.10;0.30;;;12.70;99.90;;;;;;5095554;28;20208;-59
2023/03/10 07:27:37;;;;;;;1.90;1.70;;;12.90;99.90;;;;;;5095358;28;20220;-59
2023/03/10 07:30:05;;;;;;;1.90;0.60;;;12.90;99.90;;;;;;5095407;28;20201;-59
2023/03/10 07:32:32;;;;;;;1.67;0.60;;;13.00;99.90;;;;;;5094983;28;20235;-59
2023/03/10 07:34:59;;;;;;;1.53;0.80;;;12.90;99.90;;;;;;5095595;28;20295;-58
2023/03/10 07:37:27;;;;;;;0.97;0.60;;;12.90;99.90;;;;;;5095066;28;20236;-59
2023/03/10 07:39:54;;;;;;;1.60;0.40;;;13.00;99.90;;;;;;5095100;28;20698;-59
2023/03/10 07:42:21;;;;;;;1.67;0.43;;;13.10;99.90;;;;;;5095068;28;20213;-59
2023/03/10 07:44:48;;;;;;;0.80;0.53;;;13.30;99.90;;;;;;5094960;28;20299;-59
2023/03/10 07:47:15;;;;;;;0.57;0.47;;;13.70;99.90;;;;;;5094972;28;20247;-58
2023/03/10 07:49:45;;;;;;;2.37;0.67;;;13.90;99.90;;;;;;5095017;28;20204;-59
2023/03/10 07:52:13;;;;;;;1.20;0.50;;;14.00;99.90;;;;;;5094895;28;20227;-58
2023/03/10 07:54:43;;;;;;;1.20;0.43;;;14.00;99.90;;;;;;5095102;28;20200;-57
2023/03/10 07:57:10;;;;;;;3.80;0.83;;;14.00;99.90;;;;;;5094926;28;20598;-57
2023/03/10 07:59:37;;;;;;;3.40;2.30;;;13.90;99.90;;;;;;5094868;28;20196;-60
2023/03/10 08:02:04;;;;;;;0.90;0.60;;;13.80;99.90;;;;;;5094896;28;20201;-57
2023/03/10 08:04:31;;;;;;;2.73;1.10;;;13.80;99.90;;;;;;5094585;28;20207;-57
2023/03/10 08:07:00;;;;;;;0.80;0.57;;;13.80;99.90;;;;;;5094932;28;20258;-57
2023/03/10 08:09:28;;;;;;;1.60;0.70;;;13.90;99.90;;;;;;5094101;28;20215;-57
2023/03/10 08:11:57;;;;;;;1.17;0.50;;;14.00;99.90;;;;;;5094313;28;20252;-57
2023/03/10 08:14:24;;;;;;;1.30;0.50;;;13.90;99.90;;;;;;5094959;28;20204;-58
2023/03/10 08:16:51;;;;;;;1.83;0.60;;;13.70;99.90;;;;;;5094903;28;20228;-57
2023/03/10 08:19:18;;;;;;;1.87;0.57;;;13.70;99.90;;;;;;5094782;28;20208;-58
2023/03/10 08:21:45;;;;;;;0.90;0.50;;;13.70;99.90;;;;;;5094533;28;20200;-58
2023/03/10 08:24:12;;;;;;;4.00;0.97;;;13.60;99.90;;;;;;5094318;28;20216;-59
2023/03/10 08:26:39;;;;;;;2.00;0.90;;;13.60;99.90;;;;;;5094005;28;20259;-58
2023/03/10 08:29:07;;;;;;;3.10;0.60;;;13.50;99.90;;;;;;5094163;28;20676;-57
2023/03/10 08:31:34;;;;;;;2.63;0.73;;;13.50;99.90;;;;;;5094692;28;20263;-57
2023/03/10 08:34:01;;;;;;;4.10;0.60;;;13.30;99.90;;;;;;5094538;28;20205;-58
2023/03/10 08:36:30;;;;;;;2.50;0.80;;;13.20;99.90;;;;;;5094234;28;20255;-58
2023/03/10 08:38:59;;;;;;;0.80;0.30;;;13.00;99.90;;;;;;5094209;28;20681;-58
2023/03/10 08:41:28;;;;;;;0.80;0.50;;;13.00;99.90;;;;;;5094068;28;20200;-58
2023/03/10 08:43:56;;;;;;;2.30;0.60;;;12.90;99.90;;;;;;5094101;28;20208;-58
2023/03/10 08:46:26;;;;;;;1.60;0.43;;;12.90;99.90;;;;;;5094328;28;20280;-57
2023/03/10 08:48:53;;;;;;;4.43;0.93;;;13.10;99.90;;;;;;5095014;28;20211;-60
2023/03/10 08:51:21;;;;;;;1.53;0.50;;;13.20;99.90;;;;;;5091628;28;20557;-57
2023/03/10 08:53:49;;;;;;;1.50;0.60;;;13.30;99.90;;;;;;5092173;28;20585;-58
2023/03/10 08:56:17;;;;;;;11.17;1.30;;;13.30;99.90;;;;;;5093401;28;20239;-55
2023/03/10 08:58:44;;;;;;;1.40;1.00;;;13.30;99.90;;;;;;5092350;28;20204;-55
2023/03/10 09:01:11;;;;;;;3.50;0.50;;;13.30;99.90;;;;;;5092222;28;20667;-56
2023/03/10 09:03:41;;;;;;;1.33;0.53;;;13.60;99.90;;;;;;5092606;28;20205;-55
2023/03/10 09:06:09;;;;;;;2.83;0.50;;;14.00;99.90;;;;;;5092425;28;20256;-55
2023/03/10 09:08:36;;;;;;;3.93;0.73;;;14.30;99.90;;;;;;5092743;28;20204;-55
2023/03/10 09:11:03;;;;;;;2.93;0.57;;;14.60;99.90;;;;;;5091848;28;20232;-56
2023/03/10 09:13:30;;;;;;;1.50;0.40;;;14.70;99.90;;;;;;5092650;28;20217;-55
2023/03/10 09:15:57;;;;;;;1.03;0.40;;;14.90;99.90;;;;;;5092314;28;20208;-55
2023/03/10 09:18:24;;;;;;;1.33;0.60;;;15.20;99.90;;;;;;5092459;28;20208;-55
2023/03/10 09:20:52;;;;;;;1.63;0.60;;;15.60;99.90;;;;;;5092201;28;20204;-58
2023/03/10 09:23:20;;;;;;;4.53;0.50;;;16.10;99.90;;;;;;5093345;28;20251;-59
2023/03/10 09:25:47;;;;;;;2.50;0.70;;;16.40;99.90;;;;;;5093736;28;20267;-58
2023/03/10 09:28:13;;;;;;;2.60;0.93;;;16.90;99.90;;;;;;5093502;28;20204;-58
2023/03/10 09:30:42;;;;;;;0.38;0.32;;;16.90;99.90;;;;;;5093223;28;20231;-56
2023/03/10 09:33:15;;;;;;;1.15;0.45;;;16.90;99.90;;;;;;5092661;28;20220;-58
2023/03/10 09:35:42;;;;;;;0.75;0.40;;;16.90;99.90;;;;;;5092633;28;20230;-59
2023/03/10 09:38:11;;;;;;;3.30;0.45;;;16.90;99.90;;;;;;5093177;28;20224;-59
2023/03/10 09:40:39;;;;;;;1.63;0.85;;;17.10;99.90;;;;;;5091205;28;20261;-58
2023/03/10 09:43:07;;;;;;;0.95;0.47;;;17.30;99.90;;;;;;5092229;28;20192;-58
2023/03/10 09:45:42;;;;;;;2.38;0.80;;;17.40;99.90;;;;;;5092334;28;20210;-60
2023/03/10 09:48:25;;;;;;;3.05;0.80;;;17.50;99.90;;;;;;5092336;28;20219;-61
2023/03/10 09:50:55;;;;;;;0.65;0.35;;;17.40;99.90;;;;;;5093017;28;20212;-60
2023/03/10 09:53:39;;;;;;;2.58;0.93;;;17.30;99.90;;;;;;5092688;28;20432;-59
2023/03/10 09:56:12;;;;;;;14.68;10.57;;;16.90;99.90;;;;;;5092764;28;20231;-59
2023/03/10 09:58:42;;;;;;;2.10;1.30;;;16.80;99.90;;;;;;5092958;28;20302;-59
2023/03/10 10:01:15;;;;;;;1.88;0.60;;;16.70;99.90;;;;;;5093099;28;20215;-59
2023/03/10 10:03:46;;;;;;;3.35;0.90;;;16.80;99.90;;;;;;5092753;28;20210;-59
2023/03/10 10:06:19;;;;;;;2.20;0.80;;;16.80;99.90;;;;;;5092438;28;20246;-59
2023/03/10 10:08:51;;;;;;;3.00;0.80;;;16.60;99.90;;;;;;5092906;28;20195;-59
2023/03/10 10:11:18;;;;;;;2.80;1.10;;;16.40;99.90;;;;;;5093057;28;20265;-59
2023/03/10 10:13:45;;;;;;;3.33;0.80;;;16.20;99.90;;;;;;5092687;28;20646;-59
2023/03/10 10:16:22;;;;;;;2.15;0.90;;;16.10;99.90;;;;;;5092659;28;20585;-59
2023/03/10 10:18:55;;;;;;;2.63;1.08;;;16.10;99.90;;;;;;5092722;28;20200;-59
2023/03/10 10:21:28;;;;;;;2.95;0.80;;;16.10;99.90;;;;;;5093062;28;20277;-57
2023/03/10 10:23:58;;;;;;;5.55;1.08;;;16.10;99.90;;;;;;5092262;28;20204;-57
2023/03/10 10:26:26;;;;;;;2.53;0.70;;;16.00;99.90;;;;;;5092101;28;20599;-57
2023/03/10 10:28:55;;;;;;;3.15;1.00;;;15.70;99.90;;;;;;5092256;28;20207;-57
2023/03/10 10:31:25;;;;;;;4.87;1.10;;;15.70;99.90;;;;;;5092187;28;20208;-57
2023/03/10 10:33:59;;;;;;;4.47;1.40;;;15.60;99.90;;;;;;5094956;28;20231;-58
2023/03/10 10:36:29;;;;;;;1.63;0.70;;;15.40;99.90;;;;;;5096275;28;20259;-56
2023/03/10 10:38:58;;;;;;;3.77;0.87;;;15.20;99.90;;;;;;5096233;28;20215;-56
2023/03/10 10:41:28;;;;;;;1.37;0.87;;;14.80;99.90;;;;;;5096201;28;20235;-56
2023/03/10 10:43:58;;;;;;;2.77;1.13;;;14.50;99.90;;;;;;5095574;28;20211;-56
2023/03/10 10:46:28;;;;;;;3.23;1.10;;;14.10;99.90;;;;;;5095834;28;20636;-57
2023/03/10 10:49:04;;;;;;;2.87;0.90;;;13.90;99.90;;;;;;5095818;28;20227;-56
2023/03/10 10:51:34;;;;;;;2.20;1.00;;;13.80;99.90;;;;;;5095939;28;20235;-56
2023/03/10 10:54:05;;;;;;;2.83;1.17;;;13.80;99.90;;;;;;5095394;28;20204;-56
2023/03/10 10:56:32;;;;;;;3.90;1.00;;;13.90;99.90;;;;;;5095253;28;20228;-57
2023/03/10 10:59:06;;;;;;;2.93;0.93;;;13.90;99.90;;;;;;5095760;28;20211;-57
2023/03/10 11:01:48;;;;;;;3.43;0.90;;;13.90;99.90;;;;;;5095495;28;20208;-56
2023/03/10 11:04:16;;;;;;;1.83;0.87;;;13.90;99.90;;;;;;5095352;28;20583;-57
2023/03/10 11:06:43;;;;;;;2.60;1.30;;;13.80;99.90;;;;;;5095367;28;20228;-56
2023/03/10 11:09:17;;;;;;;3.93;0.73;;;13.80;99.90;;;;;;5095167;28;20295;-56
2023/03/10 11:11:52;;;;;;;1.23;0.73;;;13.90;99.90;;;;;;5095843;28;20207;-56
2023/03/10 11:14:33;;;;;;;1.00;0.70;;;14.00;99.90;;;;;;5095341;28;20208;-57
2023/03/10 11:17:05;;;;;;;2.27;0.50;;;14.00;99.90;;;;;;5095379;28;20220;-56
2023/03/10 11:19:42;;;;;;;4.17;1.03;;;14.10;99.90;;;;;;5094953;28;20672;-56
2023/03/10 11:22:29;;;;;;;3.53;0.80;;;14.20;99.90;;;;;;5095361;28;20203;-57
2023/03/10 11:25:02;;;;;;;2.30;0.80;;;14.30;99.90;;;;;;5095070;28;20208;-56
2023/03/10 11:27:43;;;;;;;2.27;0.93;;;14.50;99.90;;;;;;5095262;28;20235;-58
2023/03/10 11:30:16;;;;;;;2.93;1.33;;;14.50;99.90;;;;;;5095098;28;20571;-56
2023/03/10 11:32:55;;;;;;;4.90;1.50;;;14.40;99.90;;;;;;5094882;28;20224;-57
2023/03/10 11:35:28;;;;;;;3.83;0.90;;;14.40;99.90;;;;;;5095010;28;20609;-57
2023/03/10 11:38:04;;;;;;;2.53;0.80;;;14.30;99.90;;;;;;5094730;28;20228;-57
2023/03/10 11:40:39;;;;;;;4.97;2.30;;;14.30;99.90;;;;;;5095020;28;20206;-57
2023/03/10 11:43:12;;;;;;;2.53;1.00;;;14.50;99.90;;;;;;5094676;28;20215;-56
2023/03/10 11:45:47;;;;;;;3.70;1.13;;;14.60;99.90;;;;;;5093976;28;20208;-57
2023/03/10 11:48:27;;;;;;;7.53;1.30;;;14.60;99.90;;;;;;5095008;28;20218;-57
2023/03/10 11:50:57;;;;;;;8.03;5.53;;;14.50;99.90;;;;;;5094854;28;20210;-57
2023/03/10 11:53:32;;;;;;;3.93;1.20;;;14.50;99.90;;;;;;5094354;28;20231;-57
2023/03/10 11:56:02;;;;;;;3.40;1.30;;;14.50;99.90;;;;;;5094736;28;20215;-57
2023/03/10 11:58:41;;;;;;;3.53;1.20;;;14.50;99.90;;;;;;5095017;28;20200;-58
2023/03/10 12:01:11;;;;;;;1.90;0.60;;;14.40;99.90;;;;;;5094821;28;20202;-57
2023/03/10 12:03:46;;;;;;;2.67;0.90;;;14.60;99.90;;;;;;5094689;28;20245;-56
2023/03/10 12:06:17;;;;;;;3.47;0.70;;;14.60;99.90;;;;;;5094739;28;20228;-57
2023/03/10 12:08:46;;;;;;;3.10;0.80;;;14.70;99.90;;;;;;5095209;28;20196;-57
2023/03/10 12:11:19;;;;;;;1.20;0.70;;;14.70;99.90;;;;;;5094907;28;20281;-57
2023/03/10 12:13:49;;;;;;;7.50;3.60;;;14.80;99.90;;;;;;5094687;28;20232;-58
2023/03/10 12:16:20;;;;;;;0.90;0.57;;;14.90;99.90;;;;;;5095266;28;20220;-57
2023/03/10 12:18:47;;;;;;;1.20;0.57;;;15.00;99.90;;;;;;5095367;28;20203;-57
2023/03/10 12:21:25;;;;;;;2.17;0.97;;;15.00;99.90;;;;;;5095151;28;20598;-57
2023/03/10 12:23:54;;;;;;;2.33;0.70;;;15.00;99.90;;;;;;5095838;28;20208;-58
2023/03/10 12:27:00;;;;;;;1.63;0.77;;;15.20;99.90;;;;;;5096493;28;20224;-57
2023/03/10 12:29:38;;;;;;;1.77;0.90;;;15.40;99.90;;;;;;5093300;28;20257;-57
2023/03/10 12:32:26;;;;;;;2.17;1.00;;;15.60;99.90;;;;;;5095214;28;20667;-56
2023/03/10 12:35:36;;;;;;;2.97;0.70;;;15.60;99.90;;;;;;5095964;28;20746;-57
2023/03/10 12:38:29;;;;;;;4.40;0.83;;;15.60;99.90;;;;;;5092148;28;20228;-56
2023/03/10 12:40:57;;;;;;;2.40;0.60;;;15.70;99.90;;;;;;5095997;28;20550;-57
2023/03/10 12:44:03;;;;;;;1.80;0.47;;;15.70;99.90;;;;;;5096809;28;20204;-57
2023/03/10 12:46:43;;;;;;;1.80;0.70;;;15.60;99.90;;;;;;5096645;28;20275;-56
2023/03/10 12:49:26;;;;;;;2.60;0.43;;;15.80;99.90;;;;;;5095672;28;20260;-57
2023/03/10 12:51:59;;;;;;;1.60;0.60;;;15.40;99.90;;;;;;5095883;28;20300;-57
2023/03/10 12:54:40;;;;;;;0.57;0.30;;;15.20;99.90;;;;;;5095980;28;20223;-58
2023/03/10 12:57:12;;;;;;;0.90;0.40;;;15.00;99.90;;;;;;5095984;28;20239;-57